Time;durP1;ratioP1;P1;durP2;ratioP2;P2;SDS_P1;SDS_P2;PMS_P1;PMS_P2;Temp;Humidity;BMP_temperature;BMP_pressure;BME280_temperature;BME280_humidity;BME280_pressure;Samples;Min_cycle;Max_cycle;Signal;HPM_P1;HPM_P2
2023/05/27 00:01:02;;;;;;;20.98;11.25;;;5.30;99.90;;;;;;4958459;28;20401;-82
2023/05/27 00:03:27;;;;;;;19.73;10.82;;;5.40;99.90;;;;;;4957603;28;20146;-80
2023/05/27 00:05:53;;;;;;;17.08;10.30;;;5.30;99.90;;;;;;4977923;28;20081;-80
2023/05/27 00:08:19;;;;;;;19.88;10.45;;;5.20;99.90;;;;;;4990256;28;20482;-80
2023/05/27 00:10:44;;;;;;;22.67;10.35;;;5.20;99.90;;;;;;4974713;28;20035;-80
2023/05/27 00:13:11;;;;;;;23.80;12.18;;;5.10;99.90;;;;;;4967720;28;20074;-80
2023/05/27 00:15:40;;;;;;;20.40;10.90;;;5.10;99.90;;;;;;4969333;28;20108;-80
2023/05/27 00:18:06;;;;;;;20.35;11.52;;;5.10;99.90;;;;;;4997476;28;20033;-80
2023/05/27 00:20:32;;;;;;;21.42;12.27;;;5.00;99.90;;;;;;4980818;28;20561;-80
2023/05/27 00:22:59;;;;;;;27.35;12.95;;;5.00;99.90;;;;;;4993828;28;20037;-81
2023/05/27 00:25:25;;;;;;;23.58;11.30;;;4.90;99.90;;;;;;5013397;28;20492;-80
2023/05/27 00:27:51;;;;;;;23.38;12.63;;;4.90;99.90;;;;;;4980428;28;20042;-80
2023/05/27 00:30:16;;;;;;;18.77;11.80;;;4.90;99.90;;;;;;4997575;28;20034;-80
2023/05/27 00:32:42;;;;;;;20.33;12.02;;;4.80;99.90;;;;;;4977430;28;20034;-80
2023/05/27 00:35:08;;;;;;;22.85;12.90;;;4.80;99.90;;;;;;4995206;28;20123;-80
2023/05/27 00:37:34;;;;;;;20.95;12.15;;;4.70;99.90;;;;;;4996936;28;20092;-80
2023/05/27 00:40:00;;;;;;;31.42;16.77;;;4.70;99.90;;;;;;4997648;28;20508;-80
2023/05/27 00:42:25;;;;;;;21.13;11.75;;;4.70;99.90;;;;;;4980096;28;20077;-80
2023/05/27 00:44:51;;;;;;;24.90;13.73;;;4.60;99.90;;;;;;4980887;28;20408;-80
2023/05/27 00:47:17;;;;;;;18.00;11.25;;;4.60;99.90;;;;;;4980331;28;20555;-80
2023/05/27 00:49:44;;;;;;;21.38;12.82;;;4.60;99.90;;;;;;4985362;28;20511;-80
2023/05/27 00:52:10;;;;;;;24.48;13.18;;;4.50;99.90;;;;;;4996621;28;20447;-81
2023/05/27 00:54:36;;;;;;;20.88;12.40;;;4.50;99.90;;;;;;4981126;28;20038;-80
2023/05/27 00:57:02;;;;;;;20.83;12.32;;;4.50;99.90;;;;;;4980086;28;20041;-80
2023/05/27 00:59:28;;;;;;;24.70;13.65;;;4.50;99.90;;;;;;4996438;28;20441;-80
2023/05/27 01:01:53;;;;;;;28.90;15.02;;;4.40;99.90;;;;;;4980471;28;20067;-80
2023/05/27 01:04:20;;;;;;;30.02;16.27;;;4.40;99.90;;;;;;4980644;28;20049;-80
2023/05/27 01:07:08;;;;;;;22.08;13.50;;;4.40;99.90;;;;;;4996436;28;20144;-80
2023/05/27 01:10:04;;;;;;;19.00;13.02;;;4.30;99.90;;;;;;4985709;28;20488;-80
2023/05/27 01:12:43;;;;;;;23.63;14.23;;;4.30;99.90;;;;;;4979702;28;20078;-80
2023/05/27 01:15:10;;;;;;;23.73;15.65;;;4.30;99.90;;;;;;4978989;28;20128;-80
2023/05/27 01:17:37;;;;;;;22.50;13.48;;;4.30;99.90;;;;;;4999115;28;20485;-80
2023/05/27 01:20:05;;;;;;;19.95;13.00;;;4.30;99.90;;;;;;4976328;28;20073;-80
2023/05/27 01:22:31;;;;;;;22.75;12.98;;;4.30;99.90;;;;;;4996462;28;20041;-81
2023/05/27 01:24:57;;;;;;;25.27;15.05;;;4.20;99.90;;;;;;4988728;28;20046;-81
2023/05/27 01:27:26;;;;;;;24.15;14.77;;;4.20;99.90;;;;;;4977821;28;20092;-80
2023/05/27 01:29:53;;;;;;;21.00;14.07;;;4.20;99.90;;;;;;4980033;28;20030;-81
2023/05/27 01:32:27;;;;;;;24.83;13.80;;;4.10;99.90;;;;;;4980674;28;20387;-80
2023/05/27 01:35:21;;;;;;;19.95;12.98;;;4.10;99.90;;;;;;4980311;28;20045;-81
2023/05/27 01:37:50;;;;;;;28.27;18.17;;;4.10;99.90;;;;;;4994629;28;20476;-81
2023/05/27 01:40:17;;;;;;;30.35;17.10;;;4.10;99.90;;;;;;4979628;28;20044;-81
2023/05/27 01:42:44;;;;;;;23.83;14.98;;;4.10;99.90;;;;;;4979685;28;20404;-80
2023/05/27 01:45:11;;;;;;;26.67;15.98;;;4.10;99.90;;;;;;4978509;28;20044;-80
2023/05/27 01:47:36;;;;;;;23.50;15.50;;;4.10;99.90;;;;;;4971209;28;20034;-81
2023/05/27 01:50:03;;;;;;;27.02;16.13;;;4.10;99.90;;;;;;4978425;28;20034;-81
2023/05/27 01:52:29;;;;;;;23.20;14.93;;;4.00;99.90;;;;;;4971471;28;20105;-80
2023/05/27 01:54:54;;;;;;;20.55;14.98;;;4.00;99.90;;;;;;4995053;28;20184;-81
2023/05/27 01:57:21;;;;;;;31.45;17.77;;;4.00;99.90;;;;;;4978872;28;20042;-81
2023/05/27 01:59:47;;;;;;;25.85;15.50;;;4.00;99.90;;;;;;4975136;28;20046;-82
2023/05/27 02:02:12;;;;;;;22.58;15.43;;;4.00;99.90;;;;;;4977923;28;20049;-81
2023/05/27 02:04:38;;;;;;;24.88;13.60;;;3.90;99.90;;;;;;4970134;28;20040;-82
2023/05/27 02:07:04;;;;;;;31.15;16.95;;;3.90;99.90;;;;;;5011239;28;20030;-81
2023/05/27 02:09:29;;;;;;;28.23;17.20;;;3.90;99.90;;;;;;5003434;28;20169;-81
2023/05/27 02:11:55;;;;;;;23.15;16.02;;;3.90;99.90;;;;;;4973573;28;20104;-80
2023/05/27 02:14:22;;;;;;;32.78;18.45;;;3.90;99.90;;;;;;4993492;28;20400;-80
2023/05/27 02:16:51;;;;;;;34.05;19.27;;;3.90;99.90;;;;;;4996276;23;20096;-78
2023/05/27 02:19:20;;;;;;;27.85;16.92;;;3.90;99.90;;;;;;4968409;28;20121;-77
2023/05/27 02:21:46;;;;;;;30.23;17.83;;;3.90;99.90;;;;;;4982892;28;20054;-77
2023/05/27 02:24:15;;;;;;;23.83;15.88;;;3.90;99.90;;;;;;5012013;28;20049;-77
2023/05/27 02:26:42;;;;;;;28.58;16.25;;;3.80;99.90;;;;;;4980112;28;20044;-77
2023/05/27 02:29:10;;;;;;;39.53;21.88;;;3.90;99.90;;;;;;4985975;28;20038;-77
2023/05/27 02:31:36;;;;;;;33.22;21.25;;;3.90;99.90;;;;;;5006027;28;20033;-77
2023/05/27 02:34:02;;;;;;;36.58;23.00;;;3.80;99.90;;;;;;5012319;28;20044;-77
2023/05/27 02:36:34;;;;;;;50.13;26.80;;;4.00;99.90;;;;;;5006706;28;20492;-77
2023/05/27 02:39:01;;;;;;;41.17;22.30;;;4.20;99.90;;;;;;4994431;28;20068;-77
2023/05/27 02:41:26;;;;;;;33.05;20.40;;;4.30;99.90;;;;;;5010492;28;20083;-78
2023/05/27 02:43:55;;;;;;;37.17;22.67;;;4.30;99.90;;;;;;4994286;28;20042;-78
2023/05/27 02:46:21;;;;;;;30.98;20.60;;;4.30;99.90;;;;;;4993721;28;20095;-78
2023/05/27 02:48:47;;;;;;;31.63;18.95;;;4.30;99.90;;;;;;4977773;28;20034;-77
2023/05/27 02:51:16;;;;;;;37.78;21.08;;;4.30;99.90;;;;;;5007541;28;20033;-78
2023/05/27 02:53:42;;;;;;;29.15;16.63;;;4.20;99.90;;;;;;5007459;28;20077;-78
2023/05/27 02:56:14;;;;;;;29.20;19.00;;;4.20;99.90;;;;;;5002567;28;20536;-78
2023/05/27 02:58:43;;;;;;;25.65;17.17;;;4.20;99.90;;;;;;4994175;28;20087;-77
2023/05/27 03:01:10;;;;;;;27.88;17.95;;;4.20;99.90;;;;;;4994047;28;20052;-77
2023/05/27 03:03:36;;;;;;;24.30;15.63;;;4.20;99.90;;;;;;4993493;28;20619;-77
2023/05/27 03:06:03;;;;;;;40.75;21.23;;;4.10;99.90;;;;;;4988282;28;20377;-77
2023/05/27 03:08:29;;;;;;;24.13;14.60;;;4.10;99.90;;;;;;4984209;28;20044;-77
2023/05/27 03:10:55;;;;;;;25.15;16.70;;;4.00;99.90;;;;;;4984440;28;20045;-77
2023/05/27 03:13:22;;;;;;;26.10;15.63;;;4.00;99.90;;;;;;5000363;28;20033;-77
2023/05/27 03:15:48;;;;;;;28.48;17.67;;;3.90;99.90;;;;;;4978335;28;20034;-77
2023/05/27 03:18:14;;;;;;;24.20;14.35;;;3.90;99.90;;;;;;4981033;28;20072;-77
2023/05/27 03:20:41;;;;;;;26.45;17.27;;;3.80;99.90;;;;;;4989547;28;20120;-77
2023/05/27 03:23:08;;;;;;;28.85;17.40;;;3.80;99.90;;;;;;4980919;28;20044;-77
2023/05/27 03:25:34;;;;;;;32.20;20.58;;;3.80;99.90;;;;;;4981555;28;20392;-77
2023/05/27 03:28:00;;;;;;;28.60;17.80;;;3.80;99.90;;;;;;4980804;28;20030;-77
2023/05/27 03:30:26;;;;;;;27.52;17.73;;;3.80;99.90;;;;;;4986804;28;20123;-77
2023/05/27 03:32:52;;;;;;;26.17;16.75;;;3.90;99.90;;;;;;5019993;28;20037;-77
2023/05/27 03:35:21;;;;;;;36.30;23.35;;;3.90;99.90;;;;;;4987963;28;20038;-77
2023/05/27 03:37:48;;;;;;;35.20;21.08;;;3.90;99.90;;;;;;4996109;28;20038;-77
2023/05/27 03:40:14;;;;;;;44.30;25.98;;;4.00;99.90;;;;;;4984133;28;20049;-77
2023/05/27 03:42:41;;;;;;;32.55;19.33;;;4.10;99.90;;;;;;4988617;28;20124;-77
2023/05/27 03:45:10;;;;;;;26.80;16.90;;;4.10;99.90;;;;;;5011711;28;20041;-77
2023/05/27 03:47:37;;;;;;;35.10;20.10;;;4.20;99.90;;;;;;4983003;28;20469;-77
2023/05/27 03:50:03;;;;;;;24.52;17.05;;;4.20;99.90;;;;;;4984393;28;20459;-77
2023/05/27 03:52:30;;;;;;;21.10;15.00;;;4.20;99.90;;;;;;4984074;28;20128;-77
2023/05/27 03:54:56;;;;;;;29.60;18.67;;;4.40;99.90;;;;;;4991790;28;20048;-77
2023/05/27 03:57:23;;;;;;;26.13;15.93;;;4.40;99.90;;;;;;4985096;28;20046;-77
2023/05/27 03:59:49;;;;;;;24.83;16.52;;;4.50;99.90;;;;;;4983822;28;20096;-78
2023/05/27 04:02:16;;;;;;;22.65;16.48;;;4.50;99.90;;;;;;4999934;28;20055;-78
2023/05/27 04:04:42;;;;;;;37.83;21.05;;;4.60;99.90;;;;;;4983693;28;20081;-77
2023/05/27 04:07:09;;;;;;;24.30;16.15;;;4.60;99.90;;;;;;4996537;28;20061;-77
2023/05/27 04:09:35;;;;;;;32.97;21.50;;;4.80;99.90;;;;;;4999984;28;20121;-77
2023/05/27 04:12:05;;;;;;;32.95;19.45;;;4.90;99.90;;;;;;4983587;28;20042;-77
2023/05/27 04:14:32;;;;;;;33.60;21.75;;;5.00;99.90;;;;;;4983661;28;20554;-77
2023/05/27 04:17:01;;;;;;;33.75;20.73;;;5.20;99.90;;;;;;4985791;28;20033;-78
2023/05/27 04:19:28;;;;;;;29.58;19.25;;;5.20;99.90;;;;;;4980781;28;20125;-77
2023/05/27 04:21:54;;;;;;;38.22;21.17;;;5.40;99.90;;;;;;4986227;28;20037;-78
2023/05/27 04:24:19;;;;;;;45.25;23.15;;;5.50;99.90;;;;;;5000118;28;20045;-77
2023/05/27 04:26:46;;;;;;;34.58;23.17;;;5.70;99.90;;;;;;4983267;28;20096;-77
2023/05/27 04:29:12;;;;;;;35.45;21.25;;;5.80;99.90;;;;;;4971616;28;20570;-77
2023/05/27 04:31:39;;;;;;;33.85;20.30;;;5.90;99.90;;;;;;4970645;28;20116;-77
2023/05/27 04:34:07;;;;;;;26.67;15.80;;;6.00;99.90;;;;;;5000427;28;20140;-77
2023/05/27 04:36:34;;;;;;;29.20;17.13;;;6.10;99.90;;;;;;4983905;28;20046;-77
2023/05/27 04:39:02;;;;;;;30.10;17.45;;;6.20;99.90;;;;;;4976450;28;20041;-78
2023/05/27 04:41:28;;;;;;;24.98;15.98;;;6.30;99.90;;;;;;4980115;28;20496;-77
2023/05/27 04:43:56;;;;;;;29.88;16.65;;;6.40;99.90;;;;;;4995866;28;20069;-78
2023/05/27 04:46:24;;;;;;;28.42;16.77;;;6.50;99.90;;;;;;4993210;28;20038;-78
2023/05/27 04:48:52;;;;;;;29.38;16.05;;;6.60;99.90;;;;;;4993631;28;20053;-78
2023/05/27 04:51:18;;;;;;;25.13;14.57;;;6.80;99.90;;;;;;4980612;28;20046;-78
2023/05/27 04:53:47;;;;;;;27.92;13.57;;;6.90;99.90;;;;;;4980396;28;20051;-77
2023/05/27 04:56:16;;;;;;;25.23;11.40;;;7.30;99.90;;;;;;4974859;28;20027;-78
2023/05/27 04:58:46;;;;;;;24.48;11.20;;;7.90;99.90;;;;;;4999929;28;20033;-78
2023/05/27 05:01:21;;;;;;;21.17;9.70;;;8.60;99.90;;;;;;4984079;28;20046;-78
2023/05/27 05:04:10;;;;;;;21.20;9.68;;;9.20;99.90;;;;;;4980491;28;20034;-78
2023/05/27 05:06:37;;;;;;;17.15;9.73;;;9.70;99.90;;;;;;4984700;28;20184;-78
2023/05/27 05:09:04;;;;;;;19.20;9.05;;;10.40;99.90;;;;;;4975942;28;20041;-78
2023/05/27 05:11:30;;;;;;;22.92;9.00;;;11.10;99.90;;;;;;4995876;28;20392;-78
2023/05/27 05:13:57;;;;;;;15.95;7.30;;;11.60;99.90;;;;;;4995449;28;20034;-78
2023/05/27 05:16:26;;;;;;;16.15;7.03;;;12.00;99.90;;;;;;5001733;28;20054;-78
2023/05/27 05:18:53;;;;;;;17.23;7.63;;;12.20;99.90;;;;;;5013952;28;20503;-79
2023/05/27 05:21:22;;;;;;;15.70;7.75;;;12.40;99.90;;;;;;5000031;28;20058;-78
2023/05/27 05:23:57;;;;;;;17.80;7.38;;;12.60;99.90;;;;;;4983715;28;20067;-79
2023/05/27 05:26:26;;;;;;;13.77;7.60;;;12.90;99.90;;;;;;5013717;28;20041;-78
2023/05/27 05:28:52;;;;;;;16.55;6.95;;;13.20;99.90;;;;;;5003590;28;20033;-78
2023/05/27 05:31:20;;;;;;;16.73;7.20;;;13.50;99.90;;;;;;5001919;28;20029;-78
2023/05/27 05:33:49;;;;;;;15.93;6.93;;;13.80;99.90;;;;;;4998336;28;20038;-78
2023/05/27 05:36:17;;;;;;;16.08;6.80;;;13.90;99.90;;;;;;5018252;28;20111;-77
2023/05/27 05:38:54;;;;;;;14.55;6.53;;;13.90;99.90;;;;;;4997167;28;20128;-77
2023/05/27 05:41:22;;;;;;;17.40;6.60;;;13.80;99.90;;;;;;5006522;28;20041;-77
2023/05/27 05:43:51;;;;;;;15.25;6.45;;;13.60;99.90;;;;;;5004430;28;20474;-77
2023/05/27 05:46:17;;;;;;;16.05;6.50;;;13.40;99.90;;;;;;4998105;28;20045;-77
2023/05/27 05:48:48;;;;;;;16.05;7.18;;;13.20;99.90;;;;;;4998952;28;20077;-77
2023/05/27 05:51:19;;;;;;;18.90;7.13;;;13.10;99.90;;;;;;4990287;28;20040;-77
2023/05/27 05:53:57;;;;;;;21.33;7.75;;;12.80;99.90;;;;;;5002815;28;20042;-77
2023/05/27 05:56:27;;;;;;;18.67;7.25;;;12.50;99.90;;;;;;5009895;28;20064;-76
2023/05/27 05:58:57;;;;;;;18.10;7.75;;;12.40;99.90;;;;;;4998556;28;20373;-77
2023/05/27 06:01:23;;;;;;;14.43;7.13;;;12.40;99.90;;;;;;5003082;28;20041;-76
2023/05/27 06:04:04;;;;;;;19.33;7.32;;;12.40;99.90;;;;;;4995251;28;20030;-77
2023/05/27 06:06:39;;;;;;;17.20;7.38;;;12.10;99.90;;;;;;4998574;28;20041;-76
2023/05/27 06:09:11;;;;;;;16.65;7.60;;;11.90;99.90;;;;;;4998871;28;20049;-76
2023/05/27 06:11:39;;;;;;;19.67;7.18;;;11.80;99.90;;;;;;4993742;28;20058;-77
2023/05/27 06:14:06;;;;;;;17.17;6.82;;;11.70;99.90;;;;;;5009958;28;20521;-77
2023/05/27 06:16:40;;;;;;;18.08;7.00;;;11.70;99.90;;;;;;5025464;28;20041;-76
2023/05/27 06:19:08;;;;;;;19.92;6.97;;;11.70;99.90;;;;;;4991928;28;20105;-76
2023/05/27 06:21:37;;;;;;;18.17;7.20;;;11.70;99.90;;;;;;4993119;28;20476;-75
2023/05/27 06:24:09;;;;;;;18.05;6.85;;;11.60;99.90;;;;;;5015070;28;20129;-75
2023/05/27 06:26:37;;;;;;;18.88;6.95;;;11.60;99.90;;;;;;4995897;28;20080;-75
2023/05/27 06:29:16;;;;;;;20.10;7.00;;;11.60;99.90;;;;;;4999202;28;20087;-77
2023/05/27 06:31:47;;;;;;;18.30;6.82;;;11.80;99.90;;;;;;5003637;28;20030;-77
2023/05/27 06:34:19;;;;;;;22.88;7.68;;;11.70;99.90;;;;;;4993158;28;20034;-77
2023/05/27 06:36:53;;;;;;;17.38;6.80;;;11.70;99.90;;;;;;4995160;28;20041;-77
2023/05/27 06:39:32;;;;;;;19.23;6.50;;;11.80;99.90;;;;;;4996130;28;20042;-78
2023/05/27 06:42:06;;;;;;;17.13;6.63;;;11.90;99.90;;;;;;5011849;28;20072;-77
2023/05/27 06:44:37;;;;;;;20.20;7.00;;;12.00;99.90;;;;;;5009114;28;20042;-77
2023/05/27 06:47:12;;;;;;;17.55;6.57;;;12.00;99.90;;;;;;5017433;28;20435;-77
2023/05/27 06:49:47;;;;;;;19.13;6.38;;;12.00;99.90;;;;;;4999799;28;20042;-78
2023/05/27 06:52:13;;;;;;;17.45;6.30;;;12.00;99.90;;;;;;5000581;28;20411;-77
2023/05/27 06:54:42;;;;;;;20.52;6.75;;;12.10;99.90;;;;;;5010111;28;20036;-77
2023/05/27 06:57:11;;;;;;;17.88;6.60;;;12.10;99.90;;;;;;5013652;28;20033;-77
2023/05/27 06:59:43;;;;;;;20.70;6.85;;;12.20;99.90;;;;;;5009629;28;20048;-77
2023/05/27 07:02:11;;;;;;;20.13;7.25;;;12.30;99.90;;;;;;5013356;28;20539;-77
2023/05/27 07:04:37;;;;;;;17.67;6.43;;;12.40;99.90;;;;;;5006096;28;20038;-77
2023/05/27 07:07:13;;;;;;;16.15;6.25;;;12.50;99.90;;;;;;5014290;28;20049;-77
2023/05/27 07:09:47;;;;;;;19.75;6.40;;;12.50;99.90;;;;;;4998562;28;20085;-77
2023/05/27 07:12:18;;;;;;;21.65;6.55;;;12.70;99.90;;;;;;5015148;28;20557;-77
2023/05/27 07:14:46;;;;;;;21.45;6.20;;;12.80;99.90;;;;;;5015006;28;20049;-77
2023/05/27 07:17:15;;;;;;;19.50;6.93;;;12.80;99.90;;;;;;5011602;28;20056;-77
2023/05/27 07:19:47;;;;;;;18.50;6.95;;;12.90;99.90;;;;;;5017501;28;20041;-77
2023/05/27 07:22:26;;;;;;;19.55;6.50;;;12.90;99.90;;;;;;5017137;28;20119;-77
2023/05/27 07:28:25;;;;;;;17.67;6.90;;;13.20;99.90;;;;;;4971994;27;6268815;-77
2023/05/27 07:30:59;;;;;;;16.30;6.30;;;13.40;99.90;;;;;;5136350;27;20053;-77
2023/05/27 07:33:25;;;;;;;15.80;6.65;;;13.40;99.90;;;;;;5153735;27;20099;-77
2023/05/27 07:35:54;;;;;;;16.95;7.30;;;13.60;99.90;;;;;;5128547;27;20470;-77
2023/05/27 07:38:23;;;;;;;13.30;5.72;;;13.70;99.90;;;;;;5117533;27;20035;-77
2023/05/27 07:40:51;;;;;;;16.60;6.32;;;13.90;99.90;;;;;;5115426;27;20050;-76
2023/05/27 07:43:27;;;;;;;13.98;6.50;;;14.00;99.90;;;;;;5116790;27;20038;-76
2023/05/27 07:46:00;;;;;;;19.10;7.10;;;14.40;99.90;;;;;;5115939;27;20099;-77
2023/05/27 07:48:35;;;;;;;17.00;5.88;;;15.10;99.90;;;;;;5117147;27;20053;-77
2023/05/27 07:51:08;;;;;;;16.83;6.32;;;15.80;99.90;;;;;;5116923;27;20038;-77
2023/05/27 07:53:42;;;;;;;15.50;5.50;;;16.40;99.90;;;;;;5117638;27;20046;-77
2023/05/27 07:56:09;;;;;;;14.95;5.53;;;16.80;99.90;;;;;;5106474;27;20035;-77
2023/05/27 07:58:40;;;;;;;13.90;5.57;;;17.10;99.90;;;;;;5117542;27;20095;-77
2023/05/27 08:01:08;;;;;;;16.55;6.85;;;17.30;99.90;;;;;;5115913;27;20561;-77
2023/05/27 08:03:37;;;;;;;15.98;6.13;;;17.40;99.90;;;;;;5135132;27;20062;-77
2023/05/27 08:06:10;;;;;;;15.68;6.18;;;17.80;91.80;;;;;;5116367;27;20059;-77
2023/05/27 08:08:35;;;;;;;;;;;17.90;93.60;;;;;;5107141;27;20050;-77
2023/05/27 08:11:12;;;;;;;17.73;6.13;;;18.10;97.70;;;;;;5118035;27;19987;-78
2023/05/27 08:13:44;;;;;;;14.57;5.88;;;18.30;83.20;;;;;;5115823;27;20035;-77
2023/05/27 08:16:10;;;;;;;16.23;5.72;;;18.50;90.50;;;;;;5116396;27;20387;-77
2023/05/27 08:18:37;;;;;;;13.45;5.70;;;18.80;91.40;;;;;;5115977;27;20039;-77
2023/05/27 08:21:03;;;;;;;14.52;5.75;;;19.20;82.90;;;;;;5116078;27;20074;-77
2023/05/27 08:23:28;;;;;;;15.93;5.82;;;19.60;86.10;;;;;;5113952;27;20069;-77
2023/05/27 08:25:56;;;;;;;14.68;5.63;;;20.30;91.50;;;;;;5115623;27;20045;-76
2023/05/27 08:28:22;;;;;;;13.85;5.28;;;21.00;76.90;;;;;;5132941;27;20035;-77
2023/05/27 08:30:50;;;;;;;15.48;6.53;;;21.20;68.00;;;;;;5115141;27;20081;-78
2023/05/27 08:33:16;;;;;;;15.75;5.80;;;21.00;66.70;;;;;;5114289;27;20164;-77
2023/05/27 08:35:42;;;;;;;15.38;6.03;;;20.80;69.20;;;;;;5114197;27;20605;-77
2023/05/27 08:38:10;;;;;;;17.63;6.07;;;21.00;66.80;;;;;;5099664;27;20134;-77
2023/05/27 08:40:38;;;;;;;14.10;5.82;;;20.80;66.20;;;;;;5100677;27;20046;-77
2023/05/27 08:43:07;;;;;;;15.30;5.05;;;20.60;69.20;;;;;;5117865;27;20088;-78
2023/05/27 08:45:33;;;;;;;14.75;6.07;;;20.90;66.20;;;;;;5100379;27;20129;-78
2023/05/27 08:48:00;;;;;;;15.45;5.82;;;20.80;67.20;;;;;;5091628;28;20067;-77
2023/05/27 08:50:28;;;;;;;13.95;5.63;;;20.80;67.50;;;;;;5099839;27;20084;-77
2023/05/27 08:53:05;;;;;;;14.80;5.68;;;20.90;70.00;;;;;;5117786;27;20039;-78
2023/05/27 08:55:32;;;;;;;16.88;5.63;;;21.50;63.40;;;;;;5100166;27;20035;-77
2023/05/27 08:57:59;;;;;;;16.02;6.53;;;21.30;64.40;;;;;;5100921;27;20047;-77
2023/05/27 09:00:26;;;;;;;14.80;5.53;;;21.30;66.50;;;;;;5099825;27;20036;-77
2023/05/27 09:02:54;;;;;;;15.02;5.85;;;21.30;65.40;;;;;;5093008;27;20489;-77
2023/05/27 09:05:20;;;;;;;15.95;6.07;;;21.60;64.50;;;;;;5101211;27;20074;-78
2023/05/27 09:07:48;;;;;;;14.68;6.70;;;21.90;62.50;;;;;;5101273;27;20046;-77
2023/05/27 09:10:17;;;;;;;13.05;6.10;;;22.10;64.10;;;;;;5099986;27;20031;-77
2023/05/27 09:12:48;;;;;;;16.98;5.93;;;22.50;61.40;;;;;;5093354;27;20038;-78
2023/05/27 09:15:23;;;;;;;14.02;6.43;;;22.50;59.90;;;;;;5093866;27;20063;-78
2023/05/27 09:17:51;;;;;;;16.88;5.65;;;22.30;60.20;;;;;;5102052;27;20507;-77
2023/05/27 09:20:23;;;;;;;12.98;5.80;;;22.00;61.30;;;;;;5119400;27;20043;-78
2023/05/27 09:22:55;;;;;;;;;;;22.10;59.40;;;;;;5103370;27;20035;-78
2023/05/27 09:25:24;;;;;;;14.15;6.63;;;21.80;60.00;;;;;;5098040;27;19915;-78
2023/05/27 09:27:54;;;;;;;15.38;5.82;;;21.30;63.30;;;;;;5096077;27;20393;-77
2023/05/27 09:30:21;;;;;;;15.45;6.10;;;21.40;66.20;;;;;;5101692;27;20125;-77
2023/05/27 09:32:47;;;;;;;14.65;6.25;;;22.10;66.00;;;;;;5118318;27;20114;-77
2023/05/27 09:35:15;;;;;;;13.50;5.70;;;22.80;59.90;;;;;;5092980;27;20069;-77
2023/05/27 09:37:43;;;;;;;15.63;5.70;;;22.90;58.80;;;;;;5102974;27;20163;-78
2023/05/27 09:40:14;;;;;;;13.70;6.30;;;22.70;58.20;;;;;;5100485;27;20035;-77
2023/05/27 09:42:44;;;;;;;14.80;6.30;;;22.30;62.30;;;;;;5101577;27;20099;-78
2023/05/27 09:45:20;;;;;;;13.90;6.10;;;22.70;58.80;;;;;;5100980;27;20061;-77
2023/05/27 09:47:51;;;;;;;14.93;6.07;;;22.70;61.80;;;;;;5100128;27;20028;-77
2023/05/27 09:50:19;;;;;;;16.35;6.18;;;22.90;63.00;;;;;;5108823;27;20053;-77
2023/05/27 09:52:47;;;;;;;14.23;6.20;;;23.50;61.60;;;;;;5102557;27;20489;-77
2023/05/27 09:55:14;;;;;;;12.88;5.80;;;24.00;60.20;;;;;;5119862;27;20378;-78
2023/05/27 09:57:40;;;;;;;15.18;6.95;;;24.60;55.80;;;;;;5101282;27;20035;-78
2023/05/27 10:00:11;;;;;;;14.30;6.25;;;24.40;55.60;;;;;;5111790;27;20500;-78
2023/05/27 10:02:39;;;;;;;14.60;6.32;;;24.10;54.70;;;;;;5101968;27;20065;-77
2023/05/27 10:05:10;;;;;;;15.68;6.35;;;23.60;57.00;;;;;;5102685;27;20051;-77
2023/05/27 10:07:41;;;;;;;14.75;6.03;;;23.70;57.60;;;;;;5100935;27;20453;-77
2023/05/27 10:10:08;;;;;;;15.45;6.32;;;23.60;59.30;;;;;;5119548;27;20039;-77
2023/05/27 10:12:36;;;;;;;13.52;6.00;;;24.00;57.40;;;;;;5097783;28;20054;-77
2023/05/27 10:15:02;;;;;;;14.00;6.25;;;24.40;56.40;;;;;;5098724;27;20213;-77
2023/05/27 10:17:29;;;;;;;13.55;6.13;;;24.50;55.60;;;;;;5100261;27;20621;-77
2023/05/27 10:19:58;;;;;;;12.27;6.13;;;24.60;55.00;;;;;;5118859;27;20064;-77
2023/05/27 10:22:24;;;;;;;15.82;6.22;;;24.60;56.60;;;;;;5102354;27;20126;-78
2023/05/27 10:24:52;;;;;;;14.48;6.30;;;24.80;56.10;;;;;;5102728;27;20070;-77
2023/05/27 10:27:19;;;;;;;13.85;6.00;;;25.00;53.70;;;;;;5098554;27;20031;-78
2023/05/27 10:29:58;;;;;;;12.32;5.65;;;24.70;53.30;;;;;;5083701;28;20122;-77
2023/05/27 10:32:23;;;;;;;15.55;6.45;;;24.50;55.30;;;;;;5100131;27;20446;-77
2023/05/27 10:34:55;;;;;;;14.13;6.00;;;24.70;54.50;;;;;;5118521;27;20031;-77
2023/05/27 10:37:22;;;;;;;12.88;6.00;;;25.00;54.90;;;;;;5117872;27;20087;-77
2023/05/27 10:39:55;;;;;;;12.73;6.13;;;25.20;56.40;;;;;;5119084;27;20071;-78
2023/05/27 10:42:22;;;;;;;12.40;6.28;;;25.90;51.40;;;;;;5119853;27;20054;-78
2023/05/27 10:44:48;;;;;;;12.57;5.82;;;25.90;49.90;;;;;;5093334;27;20043;-77
2023/05/27 10:47:14;;;;;;;13.00;5.97;;;25.10;52.70;;;;;;5100951;27;20446;-77
2023/05/27 10:49:44;;;;;;;12.98;6.32;;;25.00;54.00;;;;;;5119294;27;20039;-77
2023/05/27 10:52:17;;;;;;;13.02;5.90;;;25.20;51.80;;;;;;5101029;27;20042;-77
2023/05/27 10:54:52;;;;;;;14.27;6.00;;;25.20;54.40;;;;;;5091975;27;20070;-77
2023/05/27 10:57:24;;;;;;;13.73;6.32;;;25.50;53.20;;;;;;5102528;27;20092;-78
2023/05/27 10:59:57;;;;;;;12.33;6.30;;;26.00;53.00;;;;;;5102538;27;20046;-78
2023/05/27 11:02:24;;;;;;;13.00;6.10;;;26.20;52.40;;;;;;5098683;28;20051;-78
2023/05/27 11:04:52;;;;;;;13.52;6.10;;;26.40;51.50;;;;;;5097852;27;20043;-78
2023/05/27 11:07:19;;;;;;;13.55;6.45;;;26.40;49.10;;;;;;5102511;27;20044;-78
2023/05/27 11:09:50;;;;;;;12.57;6.43;;;25.70;51.80;;;;;;5102637;27;20483;-77
2023/05/27 11:12:17;;;;;;;13.85;6.30;;;25.40;52.50;;;;;;5101708;27;20043;-77
2023/05/27 11:14:44;;;;;;;12.32;6.25;;;25.40;53.50;;;;;;5101910;27;20038;-77
2023/05/27 11:17:11;;;;;;;13.77;6.43;;;25.70;53.20;;;;;;5092580;28;20039;-77
2023/05/27 11:19:40;;;;;;;11.98;5.90;;;26.30;50.40;;;;;;5102631;27;20035;-77
2023/05/27 11:22:08;;;;;;;12.18;6.28;;;26.40;51.20;;;;;;5100079;28;20064;-78
2023/05/27 11:24:42;;;;;;;11.93;6.18;;;26.60;49.80;;;;;;5097170;28;20035;-78
2023/05/27 11:27:12;;;;;;;13.63;6.30;;;26.30;50.30;;;;;;5108737;28;20040;-80
2023/05/27 11:29:41;;;;;;;15.95;6.47;;;26.10;51.00;;;;;;5097809;28;20081;-78
2023/05/27 11:32:10;;;;;;;14.13;6.20;;;26.20;49.80;;;;;;5096738;27;20076;-79
2023/05/27 11:34:36;;;;;;;12.50;5.93;;;25.80;51.50;;;;;;5099057;28;20035;-79
2023/05/27 11:37:04;;;;;;;14.82;6.15;;;26.00;49.00;;;;;;5113333;28;20110;-79
2023/05/27 11:39:31;;;;;;;11.27;5.78;;;25.70;50.00;;;;;;5067371;28;20062;-78
2023/05/27 11:41:57;;;;;;;14.68;6.63;;;25.50;50.50;;;;;;5099212;28;20177;-78
2023/05/27 11:44:24;;;;;;;14.38;6.28;;;25.60;51.10;;;;;;5098793;28;20121;-77
2023/05/27 11:46:52;;;;;;;13.55;6.00;;;25.80;51.70;;;;;;5092382;28;20540;-78
2023/05/27 11:49:19;;;;;;;13.57;7.20;;;26.20;49.00;;;;;;5097760;28;20060;-77
2023/05/27 11:51:49;;;;;;;12.70;5.97;;;25.70;49.40;;;;;;5092763;28;20043;-79
2023/05/27 11:54:41;;;;;;;12.70;5.82;;;25.40;50.50;;;;;;5098152;28;20035;-79
2023/05/27 11:57:12;;;;;;;11.23;5.80;;;25.60;48.80;;;;;;5107287;28;20499;-79
2023/05/27 11:59:41;;;;;;;10.70;5.72;;;25.50;49.50;;;;;;5095993;28;20099;-78
2023/05/27 12:02:20;;;;;;;11.38;6.05;;;25.40;51.10;;;;;;5098825;28;20039;-78
2023/05/27 12:04:49;;;;;;;13.13;5.60;;;25.70;48.70;;;;;;5106834;28;20043;-79
2023/05/27 12:07:15;;;;;;;12.65;5.95;;;25.70;50.00;;;;;;5092731;28;20048;-78
2023/05/27 12:09:41;;;;;;;13.82;6.03;;;26.00;51.20;;;;;;5094196;28;20058;-79
2023/05/27 12:12:07;;;;;;;14.82;6.47;;;26.60;48.90;;;;;;5092284;28;20031;-79
2023/05/27 12:14:42;;;;;;;12.73;6.28;;;26.50;47.60;;;;;;5100302;27;20043;-79
2023/05/27 12:17:49;;;;;;;10.27;5.32;;;26.00;48.10;;;;;;5084201;27;20499;-79
2023/05/27 12:20:18;;;;;;;14.55;6.30;;;25.80;49.60;;;;;;5099143;27;20497;-79
2023/05/27 12:22:52;;;;;;;11.25;6.20;;;26.20;48.70;;;;;;5097761;27;20501;-78
2023/05/27 12:25:21;;;;;;;12.07;6.13;;;26.10;48.50;;;;;;5097441;27;20043;-79
2023/05/27 12:27:50;;;;;;;12.63;6.03;;;26.10;48.30;;;;;;5098303;27;20416;-77
2023/05/27 12:30:22;;;;;;;12.73;6.05;;;25.90;48.20;;;;;;5109177;27;20169;-79
2023/05/27 12:32:53;;;;;;;13.98;6.07;;;25.70;48.50;;;;;;5102778;27;20050;-79
2023/05/27 12:35:24;;;;;;;12.00;5.30;;;25.40;48.10;;;;;;5098189;27;20458;-79
2023/05/27 12:37:52;;;;;;;13.38;6.43;;;25.10;48.60;;;;;;5091631;28;20034;-79
2023/05/27 12:40:18;;;;;;;12.32;5.50;;;25.00;48.80;;;;;;5110691;27;20127;-78
2023/05/27 12:42:54;;;;;;;;;;;;;;;;;;;;;
2023/05/27 12:45:22;;;;;;;12.25;5.90;;;25.30;50.00;;;;;;5115826;27;20043;-79
2023/05/27 12:47:55;;;;;;;13.48;6.10;;;25.70;49.70;;;;;;5094240;28;20067;-78
2023/05/27 12:50:21;;;;;;;14.07;6.22;;;26.00;50.00;;;;;;5100895;27;20122;-78